Time;durP1;ratioP1;P1;durP2;ratioP2;P2;SDS_P1;SDS_P2;PMS_P1;PMS_P2;Temp;Humidity;BMP_temperature;BMP_pressure;BME280_temperature;BME280_humidity;BME280_pressure;Samples;Min_cycle;Max_cycle;Signal;HPM_P1;HPM_P2
2022/10/11 00:02:14;;;;;;;9.27;3.50;;;10.80;91.70;;;;;;5077425;28;20427;-69
2022/10/11 00:04:42;;;;;;;7.95;3.20;;;10.80;91.50;;;;;;5079954;28;20414;-69
2022/10/11 00:07:09;;;;;;;9.77;3.80;;;10.80;91.40;;;;;;5084198;28;21055;-69
2022/10/11 00:09:36;;;;;;;7.35;3.45;;;10.80;91.40;;;;;;5084634;28;20505;-69
2022/10/11 00:12:03;;;;;;;9.10;2.95;;;10.70;91.10;;;;;;5084509;28;20458;-69
2022/10/11 00:14:29;;;;;;;8.75;3.30;;;10.70;91.20;;;;;;5084171;28;20424;-69
2022/10/11 00:16:56;;;;;;;9.80;3.20;;;10.70;91.20;;;;;;5074968;28;21048;-69
2022/10/11 00:19:23;;;;;;;9.32;3.70;;;10.70;91.20;;;;;;5084662;28;21203;-69
2022/10/11 00:21:51;;;;;;;9.15;3.30;;;10.60;91.20;;;;;;5084404;28;20433;-69
2022/10/11 00:24:18;;;;;;;7.60;3.15;;;10.60;91.30;;;;;;5084355;28;20425;-69
2022/10/11 00:26:45;;;;;;;7.05;3.35;;;10.50;91.50;;;;;;5084692;28;20527;-69
2022/10/11 00:29:12;;;;;;;9.55;3.03;;;10.50;91.50;;;;;;5084110;28;20422;-69
2022/10/11 00:31:39;;;;;;;9.52;3.40;;;10.50;91.40;;;;;;5076829;28;20443;-69
2022/10/11 00:34:07;;;;;;;7.45;3.30;;;10.50;91.70;;;;;;5074285;28;20431;-69
2022/10/11 00:36:34;;;;;;;12.60;3.60;;;10.50;92.10;;;;;;5083828;28;20898;-69
2022/10/11 00:39:02;;;;;;;11.25;3.25;;;10.50;92.20;;;;;;5084016;28;20426;-69
2022/10/11 00:41:29;;;;;;;8.05;2.92;;;10.40;92.30;;;;;;5083934;28;20426;-69
2022/10/11 00:44:20;;;;;;;12.18;3.90;;;10.40;92.30;;;;;;5084013;28;20493;-69
2022/10/11 00:46:54;;;;;;;8.05;3.30;;;10.40;92.40;;;;;;5061517;28;20421;-69
2022/10/11 00:49:27;;;;;;;7.22;3.15;;;10.40;92.80;;;;;;5084132;28;20408;-69
2022/10/11 00:51:58;;;;;;;6.93;3.10;;;10.40;93.00;;;;;;5084330;28;20796;-69
2022/10/11 00:54:31;;;;;;;9.97;3.60;;;10.40;92.80;;;;;;5084006;28;20425;-69
2022/10/11 00:57:02;;;;;;;10.80;3.17;;;10.40;92.70;;;;;;5084063;28;20422;-69
2022/10/11 00:59:34;;;;;;;7.97;3.07;;;10.30;92.20;;;;;;5082370;28;20514;-69
2022/10/11 01:02:01;;;;;;;10.02;3.60;;;10.30;92.20;;;;;;5080092;28;20494;-69
2022/10/11 01:04:27;;;;;;;10.97;4.40;;;10.20;92.10;;;;;;5083454;28;20422;-70
2022/10/11 01:06:55;;;;;;;8.35;3.03;;;10.20;92.70;;;;;;5084452;28;20429;-69
2022/10/11 01:09:22;;;;;;;6.15;2.75;;;10.20;92.80;;;;;;5084661;28;20532;-69
2022/10/11 01:11:53;;;;;;;7.78;2.85;;;10.20;92.30;;;;;;5084735;28;20417;-69
2022/10/11 01:14:44;;;;;;;8.83;3.07;;;10.10;92.20;;;;;;5081585;28;20450;-70
2022/10/11 01:17:20;;;;;;;9.18;3.67;;;10.10;91.80;;;;;;5067125;28;20422;-70
2022/10/11 01:20:23;;;;;;;9.97;3.50;;;10.00;91.50;;;;;;5084211;28;20417;-69
2022/10/11 01:23:20;;;;;;;9.13;3.30;;;10.00;91.50;;;;;;5083589;28;20747;-69
2022/10/11 01:26:04;;;;;;;11.15;3.90;;;10.00;91.90;;;;;;5071467;28;20417;-69
2022/10/11 01:28:42;;;;;;;7.20;3.38;;;10.00;92.20;;;;;;5081423;28;20514;-69
2022/10/11 01:31:18;;;;;;;8.80;3.13;;;9.90;92.20;;;;;;5087674;28;20524;-69
2022/10/11 01:33:51;;;;;;;7.63;3.15;;;9.90;92.10;;;;;;5083645;28;20433;-69
2022/10/11 01:36:27;;;;;;;5.95;3.00;;;9.90;92.40;;;;;;5078341;28;20439;-69
2022/10/11 01:38:58;;;;;;;9.50;3.40;;;9.90;92.60;;;;;;5085360;28;20479;-69
2022/10/11 01:41:30;;;;;;;7.28;3.30;;;9.90;92.90;;;;;;5087550;28;20445;-69
2022/10/11 01:44:00;;;;;;;8.18;3.20;;;9.90;93.20;;;;;;5084782;28;20502;-69
2022/10/11 01:46:29;;;;;;;7.43;3.10;;;9.80;93.00;;;;;;5081542;28;20520;-69
2022/10/11 01:48:58;;;;;;;6.30;2.80;;;9.80;93.20;;;;;;5084484;28;20434;-69
2022/10/11 01:51:28;;;;;;;8.95;3.30;;;9.80;93.00;;;;;;5081020;28;20428;-70
2022/10/11 01:54:20;;;;;;;9.63;3.50;;;9.80;93.10;;;;;;5087119;28;20756;-69
2022/10/11 01:56:59;;;;;;;7.07;3.33;;;9.80;92.50;;;;;;5088188;28;20402;-69
2022/10/11 01:59:39;;;;;;;9.43;3.70;;;9.80;92.00;;;;;;5085914;28;20437;-69
2022/10/11 02:02:18;;;;;;;5.97;3.20;;;9.70;91.70;;;;;;5084372;28;20433;-69
2022/10/11 02:04:51;;;;;;;9.85;3.20;;;9.70;91.60;;;;;;5088122;28;20429;-69
2022/10/11 02:07:22;;;;;;;8.18;3.10;;;9.70;92.00;;;;;;5087467;28;20430;-69
2022/10/11 02:09:56;;;;;;;10.32;3.55;;;9.60;91.90;;;;;;5086898;28;20414;-69
2022/10/11 02:12:27;;;;;;;7.88;3.30;;;9.60;91.60;;;;;;5086319;28;20406;-69
2022/10/11 02:14:57;;;;;;;10.00;3.38;;;9.50;91.70;;;;;;5077622;28;20417;-69
2022/10/11 02:17:31;;;;;;;8.10;3.40;;;9.50;91.80;;;;;;5078638;28;20521;-69
2022/10/11 02:20:01;;;;;;;7.28;3.10;;;9.50;92.10;;;;;;5088185;28;20418;-69
2022/10/11 02:22:31;;;;;;;12.63;3.72;;;9.60;92.80;;;;;;5087126;28;20915;-69
2022/10/11 02:25:02;;;;;;;11.82;4.00;;;9.50;92.60;;;;;;5087609;28;21085;-69
2022/10/11 02:27:33;;;;;;;9.85;3.78;;;9.50;93.20;;;;;;5086584;28;20414;-70
2022/10/11 02:30:02;;;;;;;9.60;3.80;;;9.50;92.60;;;;;;5078637;28;20914;-69
2022/10/11 02:32:31;;;;;;;8.48;3.55;;;9.50;92.80;;;;;;5088377;28;20417;-69
2022/10/11 02:35:01;;;;;;;13.70;5.20;;;9.50;93.30;;;;;;5090210;28;20436;-69
2022/10/11 02:37:35;;;;;;;11.13;5.30;;;9.50;93.50;;;;;;5088816;28;20433;-69
2022/10/11 02:40:07;;;;;;;11.88;5.20;;;9.50;93.80;;;;;;5093332;28;20443;-69
2022/10/11 02:42:38;;;;;;;12.93;5.93;;;9.50;93.80;;;;;;5100817;28;20421;-69
2022/10/11 02:45:10;;;;;;;10.20;5.60;;;9.50;93.60;;;;;;5101556;28;20426;-69
2022/10/11 02:47:40;;;;;;;11.20;6.68;;;9.40;93.80;;;;;;5093160;28;20792;-69
2022/10/11 02:50:08;;;;;;;16.23;6.97;;;9.40;94.00;;;;;;5088420;28;20406;-69
2022/10/11 02:52:34;;;;;;;13.45;6.75;;;9.40;94.10;;;;;;5086235;28;20411;-69
2022/10/11 02:55:01;;;;;;;13.23;6.43;;;9.40;94.70;;;;;;5083277;28;20425;-69
2022/10/11 02:57:28;;;;;;;11.03;5.90;;;9.40;94.30;;;;;;5087199;28;20442;-69
2022/10/11 02:59:55;;;;;;;12.43;6.38;;;9.40;94.30;;;;;;5077960;28;20759;-69
2022/10/11 03:02:22;;;;;;;12.43;6.38;;;9.40;94.60;;;;;;5086848;28;20442;-69
2022/10/11 03:04:50;;;;;;;15.60;6.60;;;9.40;94.80;;;;;;5087602;28;20505;-69
2022/10/11 03:07:17;;;;;;;12.18;5.95;;;9.40;94.80;;;;;;5082271;28;20431;-69
2022/10/11 03:09:44;;;;;;;13.38;6.70;;;9.40;94.90;;;;;;5082416;28;20410;-70
2022/10/11 03:12:10;;;;;;;14.15;6.45;;;9.40;94.80;;;;;;5086956;28;20479;-69
2022/10/11 03:14:37;;;;;;;11.38;6.43;;;9.40;94.70;;;;;;5078873;28;20431;-69
2022/10/11 03:17:04;;;;;;;10.02;5.90;;;9.40;94.60;;;;;;5084445;28;20414;-69
2022/10/11 03:19:31;;;;;;;11.75;6.80;;;9.40;94.50;;;;;;5086126;28;21059;-69
2022/10/11 03:21:59;;;;;;;15.07;6.90;;;9.40;94.80;;;;;;5077225;28;20421;-69
2022/10/11 03:24:26;;;;;;;16.38;7.65;;;9.40;94.90;;;;;;5078962;28;20422;-69
2022/10/11 03:26:53;;;;;;;15.93;7.60;;;9.40;94.90;;;;;;5083439;28;20475;-69
2022/10/11 03:29:20;;;;;;;16.33;8.27;;;9.40;95.00;;;;;;5075570;28;20436;-69
2022/10/11 03:31:46;;;;;;;14.95;7.82;;;9.40;95.20;;;;;;5082721;28;20406;-69
2022/10/11 03:34:13;;;;;;;14.07;7.65;;;9.40;95.30;;;;;;5088397;28;20810;-69
2022/10/11 03:36:40;;;;;;;14.55;8.07;;;9.40;95.30;;;;;;5080914;28;20440;-69
2022/10/11 03:39:08;;;;;;;13.30;7.07;;;9.40;95.10;;;;;;5086025;28;20406;-69
2022/10/11 03:41:35;;;;;;;12.75;7.55;;;9.40;94.90;;;;;;5085171;28;20426;-69
2022/10/11 03:44:02;;;;;;;17.92;7.90;;;9.30;94.80;;;;;;5076880;28;20429;-69
2022/10/11 03:46:28;;;;;;;12.90;7.72;;;9.30;94.60;;;;;;5085385;28;20426;-69
2022/10/11 03:48:55;;;;;;;13.30;7.60;;;9.30;94.80;;;;;;5085353;28;20413;-69
2022/10/11 03:51:22;;;;;;;17.23;8.23;;;9.20;94.90;;;;;;5086081;28;20410;-69
2022/10/11 03:53:49;;;;;;;11.80;7.32;;;9.20;95.00;;;;;;5085690;28;20410;-69
2022/10/11 03:56:17;;;;;;;13.40;7.70;;;9.20;94.80;;;;;;5080238;28;20606;-69
2022/10/11 04:01:15;;;;;;;13.38;8.60;;;9.20;94.80;;;;;;5055629;28;20484;-72
2022/10/11 04:03:41;;;;;;;15.45;8.43;;;9.20;94.90;;;;;;5047673;28;20413;-73
2022/10/11 04:06:08;;;;;;;14.20;8.80;;;9.10;95.40;;;;;;5060414;28;20797;-71
2022/10/11 04:08:35;;;;;;;12.50;8.10;;;9.20;95.10;;;;;;5061462;28;20443;-71
2022/10/11 04:11:02;;;;;;;13.20;8.02;;;9.20;95.10;;;;;;5062300;28;20438;-71
2022/10/11 04:13:30;;;;;;;13.45;9.25;;;9.20;95.10;;;;;;5060068;28;20522;-71
2022/10/11 04:15:57;;;;;;;13.57;8.17;;;9.20;95.30;;;;;;5063461;28;20979;-73
2022/10/11 04:18:23;;;;;;;18.13;7.25;;;9.20;95.20;;;;;;5067653;28;20426;-73
2022/10/11 04:20:50;;;;;;;14.85;6.63;;;9.10;95.20;;;;;;5066708;28;20469;-74
2022/10/11 04:23:17;;;;;;;14.05;6.00;;;9.20;95.50;;;;;;5067074;28;21073;-70
2022/10/11 04:25:44;;;;;;;12.02;6.25;;;9.10;95.50;;;;;;5058818;28;21017;-73
2022/10/11 04:28:11;;;;;;;12.97;5.97;;;9.10;95.50;;;;;;5067620;28;20442;-73
2022/10/11 04:30:39;;;;;;;13.57;5.60;;;9.10;95.40;;;;;;5067509;28;20801;-73
2022/10/11 04:33:05;;;;;;;12.93;5.72;;;9.10;95.30;;;;;;5067134;28;20431;-74
2022/10/11 04:35:32;;;;;;;11.23;5.00;;;9.10;95.30;;;;;;5068006;28;20419;-72
2022/10/11 04:37:59;;;;;;;9.68;4.90;;;9.10;95.20;;;;;;5067683;28;20789;-71
2022/10/11 04:40:26;;;;;;;10.20;5.35;;;9.00;95.00;;;;;;5067750;28;20431;-71
2022/10/11 04:42:53;;;;;;;11.32;5.07;;;8.90;94.80;;;;;;5066037;28;20432;-71
2022/10/11 04:45:20;;;;;;;10.80;5.35;;;8.80;94.80;;;;;;5062562;28;20480;-71
2022/10/11 04:47:48;;;;;;;12.38;4.88;;;8.80;94.80;;;;;;5068920;28;20416;-71
2022/10/11 04:50:15;;;;;;;9.88;5.18;;;8.80;94.70;;;;;;5070143;28;20419;-71
2022/10/11 04:52:42;;;;;;;9.55;4.95;;;8.70;94.60;;;;;;5066822;28;20790;-72
2022/10/11 04:55:09;;;;;;;11.15;4.60;;;8.70;94.30;;;;;;5059306;28;21032;-72
2022/10/11 04:57:36;;;;;;;11.07;5.82;;;8.60;94.10;;;;;;5057190;28;20427;-71
2022/10/11 05:00:03;;;;;;;11.70;5.80;;;8.60;94.00;;;;;;5060719;28;20421;-72
2022/10/11 05:02:30;;;;;;;10.85;5.93;;;8.50;93.90;;;;;;5069802;28;20457;-72
2022/10/11 05:04:58;;;;;;;11.95;6.25;;;8.40;94.00;;;;;;5070381;28;21092;-72
2022/10/11 05:07:25;;;;;;;17.05;7.80;;;8.40;94.10;;;;;;5071143;28;20424;-72
2022/10/11 05:09:52;;;;;;;12.27;6.97;;;8.30;93.80;;;;;;5058911;28;20905;-70
2022/10/11 05:12:18;;;;;;;11.82;7.00;;;8.20;94.10;;;;;;5059847;28;20417;-72
2022/10/11 05:14:45;;;;;;;15.70;8.43;;;8.20;94.30;;;;;;5064563;28;20778;-72
2022/10/11 05:17:12;;;;;;;15.73;8.90;;;8.20;94.20;;;;;;5070906;28;20416;-70
2022/10/11 05:19:39;;;;;;;17.00;10.80;;;8.20;94.30;;;;;;5058889;28;20524;-72
2022/10/11 05:22:07;;;;;;;17.63;12.13;;;8.20;94.40;;;;;;5059466;28;20434;-71
2022/10/11 05:24:34;;;;;;;19.98;12.55;;;8.10;94.60;;;;;;5060387;28;20461;-72
2022/10/11 05:27:00;;;;;;;20.03;13.17;;;8.10;94.80;;;;;;5067484;28;20432;-72
2022/10/11 05:29:27;;;;;;;19.58;13.25;;;8.10;95.10;;;;;;5068800;28;20435;-72
2022/10/11 05:31:54;;;;;;;26.08;13.60;;;8.10;95.30;;;;;;5070032;28;20407;-71
2022/10/11 05:34:21;;;;;;;22.48;14.50;;;8.20;95.40;;;;;;5063065;28;20432;-70
2022/10/11 05:36:47;;;;;;;27.95;15.60;;;8.20;95.50;;;;;;5062963;28;20797;-69
2022/10/11 05:39:16;;;;;;;24.30;16.93;;;8.20;95.60;;;;;;5065176;28;20436;-71
2022/10/11 05:41:42;;;;;;;32.40;17.45;;;8.20;95.70;;;;;;5064579;28;20426;-71
2022/10/11 05:44:09;;;;;;;29.75;18.50;;;8.30;95.90;;;;;;5070388;28;20426;-72
2022/10/11 05:46:36;;;;;;;37.08;20.02;;;8.30;96.10;;;;;;5068982;28;20501;-73
2022/10/11 05:49:03;;;;;;;35.10;20.48;;;8.30;96.30;;;;;;5059952;28;20439;-72
2022/10/11 05:51:29;;;;;;;34.40;20.55;;;8.30;96.40;;;;;;5067972;28;20906;-72
2022/10/11 05:53:56;;;;;;;54.03;23.25;;;8.40;96.50;;;;;;5068057;28;20423;-72
2022/10/11 05:56:25;;;;;;;36.30;22.05;;;8.40;96.60;;;;;;5061135;28;20428;-71
2022/10/11 05:58:53;;;;;;;34.75;21.70;;;8.40;96.80;;;;;;5063227;28;20423;-71
2022/10/11 06:01:22;;;;;;;38.10;22.58;;;8.40;96.90;;;;;;5064553;28;20427;-71
2022/10/11 06:03:49;;;;;;;43.95;22.67;;;8.50;97.10;;;;;;5069629;28;20531;-72
2022/10/11 06:06:15;;;;;;;38.03;22.52;;;8.60;97.30;;;;;;5069651;28;20426;-72
2022/10/11 06:08:42;;;;;;;45.80;23.75;;;8.70;97.30;;;;;;5069416;28;20430;-72
2022/10/11 06:11:12;;;;;;;46.88;23.25;;;8.80;97.40;;;;;;5053152;28;20948;-71
2022/10/11 06:13:41;;;;;;;41.67;22.98;;;8.90;97.30;;;;;;5058088;28;20911;-72
2022/10/11 06:16:08;;;;;;;43.90;23.05;;;9.00;97.40;;;;;;5069956;28;20526;-71
2022/10/11 06:18:34;;;;;;;45.60;22.70;;;8.90;97.30;;;;;;5070299;28;20415;-74
2022/10/11 06:21:01;;;;;;;45.58;23.73;;;8.90;97.20;;;;;;5069954;28;20422;-73
2022/10/11 06:23:28;;;;;;;46.30;24.35;;;8.90;97.10;;;;;;5062261;28;20944;-73
2022/10/11 06:25:58;;;;;;;56.28;26.25;;;8.90;97.20;;;;;;5067443;28;20805;-72
2022/10/11 06:28:25;;;;;;;51.80;26.08;;;8.90;97.20;;;;;;5067152;28;20426;-72
2022/10/11 06:30:53;;;;;;;55.73;25.33;;;8.90;97.40;;;;;;5065549;28;20422;-73
2022/10/11 06:33:21;;;;;;;51.00;24.48;;;9.00;97.40;;;;;;5064060;28;20412;-72
2022/10/11 06:35:47;;;;;;;41.45;23.88;;;9.00;97.50;;;;;;5065915;28;20421;-73
2022/10/11 06:38:14;;;;;;;46.20;25.80;;;9.00;97.50;;;;;;5059337;28;20424;-71
2022/10/11 06:40:41;;;;;;;50.15;27.67;;;9.00;97.60;;;;;;5068695;28;20438;-72
2022/10/11 06:43:08;;;;;;;48.70;27.67;;;9.10;97.70;;;;;;5062348;28;20496;-73
2022/10/11 06:45:35;;;;;;;45.95;26.80;;;9.20;97.70;;;;;;5063278;28;20912;-73
2022/10/11 06:48:04;;;;;;;46.00;27.73;;;9.30;97.70;;;;;;5069225;28;20415;-73
2022/10/11 06:50:32;;;;;;;48.53;27.55;;;9.30;97.50;;;;;;5065950;28;20431;-73
2022/10/11 06:52:59;;;;;;;38.83;24.30;;;9.30;97.40;;;;;;5065841;28;20427;-72
2022/10/11 06:55:26;;;;;;;44.58;25.02;;;9.30;97.20;;;;;;5056650;28;20441;-74
2022/10/11 06:57:52;;;;;;;40.72;24.88;;;9.30;97.10;;;;;;5064083;28;21288;-73
2022/10/11 07:00:19;;;;;;;38.87;26.83;;;9.30;97.00;;;;;;5069225;28;20420;-71
2022/10/11 07:02:48;;;;;;;40.78;27.50;;;9.30;96.90;;;;;;5057331;28;20424;-70
2022/10/11 07:05:16;;;;;;;41.60;27.60;;;9.30;96.70;;;;;;5064749;28;20861;-71
2022/10/11 07:07:43;;;;;;;42.00;27.92;;;9.30;96.80;;;;;;5066977;28;20435;-73
2022/10/11 07:10:10;;;;;;;41.60;24.80;;;9.40;96.80;;;;;;5054221;28;20437;-71
2022/10/11 07:12:37;;;;;;;43.83;26.50;;;9.40;96.80;;;;;;5068487;28;20415;-71
2022/10/11 07:15:04;;;;;;;42.67;25.67;;;9.40;96.70;;;;;;5061621;28;20444;-71
2022/10/11 07:17:31;;;;;;;40.58;26.77;;;9.40;96.50;;;;;;5064502;28;20431;-71
2022/10/11 07:19:58;;;;;;;39.40;26.60;;;9.40;96.40;;;;;;5063722;28;20431;-72
2022/10/11 07:22:26;;;;;;;44.97;27.90;;;9.40;96.50;;;;;;5060786;28;20431;-71
2022/10/11 07:24:53;;;;;;;50.65;28.95;;;9.50;96.60;;;;;;5063381;28;20423;-71
2022/10/11 07:27:22;;;;;;;45.40;29.70;;;9.50;96.40;;;;;;5063282;28;20540;-71
2022/10/11 07:29:49;;;;;;;43.85;30.92;;;9.50;96.30;;;;;;5068605;28;20985;-71
2022/10/11 07:32:16;;;;;;;42.03;30.70;;;9.40;96.30;;;;;;5066677;28;20431;-70
2022/10/11 07:34:43;;;;;;;45.58;32.35;;;9.50;96.20;;;;;;5055161;28;20431;-70
2022/10/11 07:37:10;;;;;;;44.05;29.95;;;9.50;96.30;;;;;;5054980;28;20428;-71
2022/10/11 07:39:38;;;;;;;41.70;29.60;;;9.60;96.40;;;;;;5063074;28;20442;-72
2022/10/11 07:42:05;;;;;;;37.80;28.35;;;9.60;96.40;;;;;;5064696;28;20439;-73
2022/10/11 07:44:33;;;;;;;40.42;31.00;;;9.60;96.30;;;;;;5067880;28;20481;-73
2022/10/11 07:46:59;;;;;;;43.13;30.07;;;9.60;96.00;;;;;;5067151;28;20428;-72
2022/10/11 07:49:26;;;;;;;38.60;29.98;;;9.50;95.90;;;;;;5061937;28;20456;-71
2022/10/11 07:51:53;;;;;;;40.50;31.27;;;9.50;95.90;;;;;;5055602;28;20835;-70
2022/10/11 07:54:20;;;;;;;41.28;32.00;;;9.60;96.00;;;;;;5067064;28;20416;-71
2022/10/11 07:56:48;;;;;;;40.80;31.88;;;9.60;95.90;;;;;;5058425;28;20488;-72
2022/10/11 07:59:14;;;;;;;41.72;31.85;;;9.50;95.80;;;;;;5056276;28;20427;-71
2022/10/11 08:01:41;;;;;;;47.78;33.55;;;9.50;95.70;;;;;;5060983;28;20464;-72
2022/10/11 08:04:08;;;;;;;40.33;31.55;;;9.50;95.80;;;;;;5066913;28;21055;-72
2022/10/11 08:06:36;;;;;;;38.85;31.67;;;9.60;95.80;;;;;;5066255;28;20435;-71
2022/10/11 08:09:04;;;;;;;43.80;33.05;;;9.60;95.70;;;;;;5064356;28;20431;-71
2022/10/11 08:11:33;;;;;;;44.45;33.72;;;9.50;95.40;;;;;;5052621;28;20492;-71
2022/10/11 08:14:03;;;;;;;43.73;32.80;;;9.50;95.30;;;;;;5061643;28;20412;-71
2022/10/11 08:16:30;;;;;;;47.28;34.05;;;9.50;95.30;;;;;;5066759;28;20428;-71
2022/10/11 08:18:56;;;;;;;48.97;34.55;;;9.60;95.30;;;;;;5065273;28;20419;-72
2022/10/11 08:21:23;;;;;;;49.03;35.45;;;9.60;95.20;;;;;;5057299;28;20539;-71
2022/10/11 08:23:50;;;;;;;51.65;36.15;;;9.60;95.50;;;;;;5056355;28;20417;-72
2022/10/11 08:26:17;;;;;;;47.53;33.67;;;9.70;95.60;;;;;;5056822;28;20417;-71
2022/10/11 08:28:44;;;;;;;46.57;33.10;;;9.70;95.50;;;;;;5055953;28;20557;-71
2022/10/11 08:31:14;;;;;;;47.58;34.25;;;9.70;95.30;;;;;;5056140;28;20951;-72
2022/10/11 08:33:41;;;;;;;45.30;33.50;;;9.80;95.30;;;;;;5055591;28;20424;-72
2022/10/11 08:36:09;;;;;;;45.00;32.53;;;9.80;95.20;;;;;;5057670;28;20431;-71
2022/10/11 08:38:37;;;;;;;49.92;34.03;;;9.80;95.20;;;;;;5056619;28;20912;-71
2022/10/11 08:41:23;;;;;;;45.10;34.03;;;9.90;95.50;;;;;;5056283;28;20935;-72
2022/10/11 08:43:57;;;;;;;47.45;32.55;;;10.00;95.00;;;;;;5054098;28;20436;-72
2022/10/11 08:46:30;;;;;;;47.72;33.28;;;10.00;94.80;;;;;;5056537;28;20419;-72
2022/10/11 08:48:58;;;;;;;47.90;33.17;;;10.10;94.60;;;;;;5056262;28;20431;-71
2022/10/11 08:51:27;;;;;;;48.42;31.65;;;10.10;94.60;;;;;;5056152;28;20433;-71
2022/10/11 08:53:57;;;;;;;43.63;31.97;;;10.20;94.00;;;;;;5053690;28;20424;-71
2022/10/11 08:56:26;;;;;;;47.97;32.07;;;10.20;94.10;;;;;;5055149;28;20498;-72
2022/10/11 08:58:57;;;;;;;47.40;32.35;;;10.20;93.90;;;;;;5055458;28;20424;-71
2022/10/11 09:01:28;;;;;;;44.10;32.53;;;10.30;94.00;;;;;;5055651;28;20510;-71
2022/10/11 09:03:56;;;;;;;39.72;30.25;;;10.30;93.90;;;;;;5056242;28;21116;-71
2022/10/11 09:06:37;;;;;;;38.10;30.02;;;10.50;93.80;;;;;;5057320;28;20428;-71
2022/10/11 09:09:27;;;;;;;38.00;30.50;;;10.60;93.40;;;;;;5063646;28;20425;-71
2022/10/11 09:12:10;;;;;;;36.40;28.80;;;10.80;93.30;;;;;;5062309;28;20445;-72
2022/10/11 09:15:05;;;;;;;36.60;28.35;;;10.80;91.90;;;;;;5077378;28;20419;-71
2022/10/11 09:17:47;;;;;;;35.38;29.25;;;11.00;91.90;;;;;;5047642;28;20432;-71
2022/10/11 09:20:32;;;;;;;37.83;27.77;;;11.20;91.20;;;;;;5066231;28;20411;-72
2022/10/11 09:23:04;;;;;;;34.83;26.83;;;11.40;90.40;;;;;;5055110;28;20439;-70
2022/10/11 09:25:34;;;;;;;35.50;28.70;;;11.40;89.30;;;;;;5055023;28;20413;-72
2022/10/11 09:28:12;;;;;;;37.95;29.55;;;11.40;88.90;;;;;;5055902;28;20424;-71
2022/10/11 09:30:45;;;;;;;35.93;28.57;;;11.40;88.90;;;;;;5055526;28;20430;-72
2022/10/11 09:33:18;;;;;;;37.70;30.25;;;11.40;89.80;;;;;;5056660;28;20419;-71
2022/10/11 09:35:48;;;;;;;35.15;29.27;;;11.40;89.00;;;;;;5055831;28;20415;-71
2022/10/11 09:38:26;;;;;;;39.08;30.60;;;11.50;89.20;;;;;;5055462;28;20433;-72
2022/10/11 09:41:02;;;;;;;36.50;28.80;;;11.50;88.90;;;;;;5057425;28;20415;-73
2022/10/11 09:43:29;;;;;;;38.05;30.30;;;11.60;88.40;;;;;;5055823;28;20437;-71
2022/10/11 09:45:56;;;;;;;38.25;30.20;;;11.50;88.40;;;;;;5056284;28;20411;-71
2022/10/11 09:48:30;;;;;;;41.35;32.17;;;11.50;88.30;;;;;;5059174;28;20419;-70
2022/10/11 09:51:02;;;;;;;39.25;31.38;;;11.50;88.90;;;;;;5059786;28;20471;-70
2022/10/11 09:53:51;;;;;;;34.95;30.25;;;11.50;88.70;;;;;;5058769;28;20940;-73
2022/10/11 09:56:18;;;;;;;37.75;30.13;;;11.50;88.50;;;;;;5060137;28;20423;-73
2022/10/11 09:58:45;;;;;;;35.83;30.58;;;11.60;87.60;;;;;;5059924;28;20419;-71
2022/10/11 10:01:21;;;;;;;38.10;32.25;;;11.60;87.90;;;;;;5059122;28;20424;-71
2022/10/11 10:04:05;;;;;;;37.90;31.17;;;11.50;88.10;;;;;;5058808;28;20429;-71
2022/10/11 10:06:31;;;;;;;34.15;29.08;;;11.60;87.80;;;;;;5060343;28;20431;-74
2022/10/11 10:09:21;;;;;;;35.00;29.95;;;11.60;88.50;;;;;;5060081;28;20905;-71
2022/10/11 10:11:47;;;;;;;37.55;29.75;;;11.90;87.60;;;;;;5058714;28;20440;-72
2022/10/11 10:14:21;;;;;;;33.45;29.70;;;12.10;86.80;;;;;;5058648;28;20916;-71
2022/10/11 10:16:48;;;;;;;35.90;29.40;;;12.30;84.90;;;;;;5059748;28;20420;-71
2022/10/11 10:19:22;;;;;;;30.30;27.00;;;12.60;83.20;;;;;;5065104;28;20889;-70
2022/10/11 10:21:51;;;;;;;29.20;26.20;;;12.90;82.80;;;;;;5064293;28;20585;-71
2022/10/11 10:24:20;;;;;;;32.03;26.73;;;13.50;81.00;;;;;;5071929;28;20428;-72
2022/10/11 10:27:07;;;;;;;30.97;25.63;;;14.00;78.40;;;;;;5060674;28;20433;-70
2022/10/11 10:29:34;;;;;;;28.85;25.75;;;14.40;75.10;;;;;;5061047;28;20411;-71
2022/10/11 10:32:08;;;;;;;33.20;26.15;;;14.80;74.40;;;;;;5060716;28;20452;-72
2022/10/11 10:34:39;;;;;;;28.52;24.73;;;15.20;71.90;;;;;;5060547;28;20433;-72
2022/10/11 10:37:11;;;;;;;28.40;23.45;;;15.40;71.40;;;;;;5060145;28;20413;-72
2022/10/11 10:39:42;;;;;;;27.23;23.15;;;15.80;69.40;;;;;;5060017;28;20427;-72
2022/10/11 10:42:13;;;;;;;27.60;23.48;;;16.30;67.80;;;;;;5060073;28;20423;-70
2022/10/11 10:44:40;;;;;;;23.27;20.77;;;16.50;66.20;;;;;;5061315;28;21230;-73
2022/10/11 10:47:14;;;;;;;25.60;21.10;;;16.70;65.10;;;;;;5064653;28;20516;-73
2022/10/11 10:49:45;;;;;;;25.10;21.10;;;17.00;63.70;;;;;;5073714;28;20440;-72
2022/10/11 10:52:36;;;;;;;23.30;20.40;;;17.20;63.00;;;;;;5070655;28;20428;-71
2022/10/11 10:55:11;;;;;;;24.10;19.88;;;17.20;62.60;;;;;;5071958;28;20438;-72
2022/10/11 10:57:47;;;;;;;22.15;17.25;;;17.30;61.80;;;;;;5070797;28;20403;-73
2022/10/11 11:00:18;;;;;;;17.95;15.18;;;17.20;62.00;;;;;;5068031;28;20426;-71
2022/10/11 11:02:50;;;;;;;18.88;15.50;;;17.50;60.30;;;;;;5066465;28;20416;-71
2022/10/11 11:05:32;;;;;;;19.63;15.43;;;17.90;59.10;;;;;;5073533;28;20455;-70
2022/10/11 11:08:07;;;;;;;20.33;16.77;;;18.20;58.20;;;;;;5076211;28;20431;-71
2022/10/11 11:10:39;;;;;;;21.77;16.42;;;18.50;58.20;;;;;;5073630;28;20431;-70
2022/10/11 11:13:18;;;;;;;17.23;15.30;;;18.80;57.30;;;;;;5062594;28;20416;-70
2022/10/11 11:15:53;;;;;;;18.65;14.80;;;18.90;56.40;;;;;;5062384;28;20428;-71
2022/10/11 11:18:28;;;;;;;18.08;13.80;;;18.90;55.80;;;;;;5062170;28;20423;-69
2022/10/11 11:21:13;;;;;;;16.48;13.38;;;19.20;55.20;;;;;;5062917;28;21082;-71
2022/10/11 11:23:49;;;;;;;18.30;15.65;;;19.30;54.30;;;;;;5062863;28;20433;-71
2022/10/11 11:26:23;;;;;;;19.20;16.30;;;19.40;54.00;;;;;;5070037;28;20424;-72
2022/10/11 11:29:06;;;;;;;18.02;14.25;;;19.60;54.30;;;;;;5085377;28;20416;-74
2022/10/11 11:31:47;;;;;;;14.80;12.10;;;19.80;53.40;;;;;;5085977;28;20456;-72
2022/10/11 11:34:21;;;;;;;17.40;12.68;;;19.80;53.50;;;;;;5081147;28;20421;-70
2022/10/11 11:36:55;;;;;;;17.55;14.75;;;20.00;53.00;;;;;;5072536;28;21355;-71
2022/10/11 11:39:25;;;;;;;19.02;14.60;;;20.10;51.40;;;;;;5062744;28;20431;-70
2022/10/11 11:41:57;;;;;;;19.35;15.20;;;20.30;51.30;;;;;;5063096;28;20899;-71
2022/10/11 11:44:29;;;;;;;17.63;13.97;;;20.40;51.60;;;;;;5062983;28;20442;-71
2022/10/11 11:47:01;;;;;;;16.20;12.45;;;20.60;52.10;;;;;;5062139;28;20409;-71
2022/10/11 11:49:33;;;;;;;17.77;12.63;;;20.80;50.40;;;;;;5059682;28;20546;-71
2022/10/11 11:52:03;;;;;;;16.83;11.80;;;20.70;49.60;;;;;;5062652;28;20461;-69
2022/10/11 11:54:42;;;;;;;17.90;13.10;;;20.50;49.90;;;;;;5061265;28;20509;-71
2022/10/11 11:57:16;;;;;;;13.55;10.93;;;20.50;50.20;;;;;;5062317;28;20425;-69
2022/10/11 11:59:50;;;;;;;14.45;10.18;;;20.50;49.60;;;;;;5061510;28;20415;-70
2022/10/11 12:02:31;;;;;;;14.05;10.15;;;20.60;48.20;;;;;;5058988;28;20931;-71
2022/10/11 12:04:59;;;;;;;12.57;8.00;;;20.60;49.70;;;;;;5059997;28;20427;-71
2022/10/11 12:07:28;;;;;;;9.50;6.95;;;20.70;48.60;;;;;;5061325;28;20421;-71
2022/10/11 12:10:18;;;;;;;9.95;7.25;;;21.10;46.70;;;;;;5061544;28;20413;-71
2022/10/11 12:12:46;;;;;;;12.05;7.32;;;21.30;46.90;;;;;;5064792;28;20502;-72
2022/10/11 12:15:20;;;;;;;9.77;7.00;;;21.40;45.10;;;;;;5078811;28;20432;-70
2022/10/11 12:18:15;;;;;;;12.40;7.03;;;21.60;46.00;;;;;;5068560;28;20969;-71
2022/10/11 12:20:43;;;;;;;11.18;6.75;;;21.70;45.30;;;;;;5097513;22;20449;-70
2022/10/11 12:23:48;;;;;;;10.43;6.80;;;21.80;44.40;;;;;;5077161;28;20444;-70
2022/10/11 12:26:34;;;;;;;10.57;5.40;;;22.00;43.10;;;;;;5064065;28;20429;-70
2022/10/11 12:29:35;;;;;;;6.70;4.32;;;22.20;41.30;;;;;;5080823;28;20410;-70
2022/10/11 12:32:27;;;;;;;6.30;4.70;;;22.30;41.70;;;;;;5048076;28;20423;-70
2022/10/11 12:35:36;;;;;;;9.10;6.40;;;22.30;41.10;;;;;;5058586;28;20415;-71
2022/10/11 12:38:13;;;;;;;10.07;5.72;;;22.30;41.00;;;;;;5060711;28;20640;-70
2022/10/11 12:40:41;;;;;;;8.17;5.90;;;22.10;42.10;;;;;;5060472;28;20969;-69
2022/10/11 12:43:31;;;;;;;7.47;5.80;;;22.20;42.20;;;;;;5058731;28;20506;-69
2022/10/11 12:46:48;;;;;;;8.70;5.80;;;22.40;40.40;;;;;;5059669;28;20444;-69
2022/10/11 12:49:34;;;;;;;9.85;6.10;;;22.50;40.00;;;;;;4963652;28;20452;-70
2022/10/11 12:52:03;;;;;;;10.05;5.80;;;22.80;41.10;;;;;;5047021;28;20520;-70
2022/10/11 12:55:01;;;;;;;9.63;5.77;;;23.10;39.90;;;;;;5055254;28;20430;-70
2022/10/11 12:57:55;;;;;;;8.65;5.10;;;22.70;41.30;;;;;;5059053;28;20438;-70
2022/10/11 13:00:29;;;;;;;7.85;4.70;;;21.90;41.20;;;;;;5054326;28;20422;-70
2022/10/11 13:02:57;;;;;;;6.75;4.57;;;21.20;42.20;;;;;;5058650;28;20634;-70
2022/10/11 13:05:30;;;;;;;6.22;3.70;;;21.10;44.90;;;;;;5060724;28;20446;-69